Time;durP1;ratioP1;P1;durP2;ratioP2;P2;SDS_P1;SDS_P2;PMS_P1;PMS_P2;Temp;Humidity;BMP_temperature;BMP_pressure;BME280_temperature;BME280_humidity;BME280_pressure;Samples;Min_cycle;Max_cycle;Signal;HPM_P1;HPM_P2
2021/12/15 00:01:13;;;;;;;16.97;6.27;;;7.00;99.90;;;7.18;100.00;102125.22;5069395;28;20975;-63
2021/12/15 00:03:41;;;;;;;12.77;7.03;;;7.00;99.90;;;7.18;100.00;102126.06;5070633;28;20720;-64
2021/12/15 00:06:17;;;;;;;15.80;6.70;;;6.90;99.90;;;7.19;100.00;102114.78;5063035;28;20730;-64
2021/12/15 00:08:48;;;;;;;16.43;7.50;;;7.00;99.90;;;7.14;100.00;102113.25;5070874;28;20615;-64
2021/12/15 00:11:17;;;;;;;14.97;7.07;;;6.90;99.90;;;7.13;100.00;102115.00;5069396;28;20627;-64
2021/12/15 00:13:46;;;;;;;10.57;6.50;;;6.90;99.90;;;7.14;100.00;102119.28;5070516;28;20705;-64
2021/12/15 00:16:16;;;;;;;11.10;6.03;;;6.90;99.90;;;7.15;100.00;102122.75;5068731;28;20673;-65
2021/12/15 00:18:44;;;;;;;15.70;7.07;;;6.90;99.90;;;7.15;100.00;102118.41;5048697;28;20682;-64
2021/12/15 00:21:16;;;;;;;12.87;6.50;;;6.90;99.90;;;7.13;100.00;102117.59;5063005;28;20630;-63
2021/12/15 00:23:45;;;;;;;10.83;6.30;;;6.90;99.90;;;7.13;100.00;102109.81;5068634;28;21060;-64
2021/12/15 00:26:13;;;;;;;12.80;6.40;;;6.90;99.90;;;7.15;100.00;102109.75;5052903;28;20591;-64
2021/12/15 00:28:42;;;;;;;15.93;6.63;;;6.90;99.90;;;7.13;100.00;102117.59;5049834;28;21214;-64
2021/12/15 00:31:10;;;;;;;17.77;8.03;;;6.90;99.90;;;7.12;100.00;102113.31;5064176;28;21340;-65
2021/12/15 00:33:40;;;;;;;11.53;7.00;;;6.90;99.90;;;7.08;100.00;102114.31;5068192;28;20650;-64
2021/12/15 00:36:08;;;;;;;12.40;6.27;;;6.80;99.90;;;7.04;100.00;102118.75;5051784;28;20617;-65
2021/12/15 00:38:36;;;;;;;12.57;6.70;;;6.80;99.90;;;7.01;100.00;102107.63;5061266;28;20642;-65
2021/12/15 00:41:05;;;;;;;12.50;7.40;;;6.80;99.90;;;7.00;100.00;102112.00;5069589;28;20622;-65
2021/12/15 00:43:33;;;;;;;14.70;6.80;;;6.80;99.90;;;7.03;100.00;102111.00;5070572;28;20646;-64
2021/12/15 00:46:01;;;;;;;11.77;6.73;;;6.80;99.90;;;7.04;100.00;102113.56;5050219;28;20641;-64
2021/12/15 00:48:28;;;;;;;10.60;6.00;;;6.80;99.90;;;7.06;100.00;102110.91;5069081;28;20697;-62
2021/12/15 00:50:56;;;;;;;9.90;6.50;;;6.90;99.90;;;7.05;100.00;102109.22;5069333;28;20615;-65
2021/12/15 00:53:23;;;;;;;13.60;6.87;;;6.90;99.90;;;7.01;100.00;102112.81;5069954;28;21202;-65
2021/12/15 00:55:51;;;;;;;12.43;6.60;;;6.80;99.90;;;7.00;100.00;102105.94;5067977;28;20637;-62
2021/12/15 00:58:18;;;;;;;15.30;7.83;;;6.80;99.90;;;6.95;100.00;102111.28;5071041;28;20776;-64
2021/12/15 01:00:56;;;;;;;12.40;5.50;;;6.80;99.90;;;6.99;100.00;102112.00;5068395;28;21020;-64
2021/12/15 01:03:25;;;;;;;10.67;5.60;;;6.80;99.90;;;7.00;100.00;102113.72;5068511;28;21047;-64
2021/12/15 01:06:02;;;;;;;11.50;6.10;;;6.80;99.90;;;7.01;100.00;102113.66;5051420;28;20690;-64
2021/12/15 01:08:31;;;;;;;17.87;6.23;;;6.80;99.90;;;7.03;100.00;102106.66;5049968;28;20635;-64
2021/12/15 01:11:18;;;;;;;11.60;6.17;;;6.90;99.90;;;7.07;100.00;102122.97;5068820;28;20631;-64
2021/12/15 01:19:52;;;;;;;12.10;6.67;;;6.90;99.90;;;7.07;100.00;102117.78;5058647;28;20627;-64
2021/12/15 01:22:52;;;;;;;12.97;7.00;;;6.90;99.90;;;7.01;100.00;102118.00;5046945;28;20639;-62
2021/12/15 01:25:37;;;;;;;11.33;5.63;;;6.80;99.90;;;7.06;100.00;102118.72;5065152;28;20666;-64
2021/12/15 01:28:04;;;;;;;11.77;6.17;;;6.90;99.90;;;7.04;100.00;102118.75;5049787;28;20619;-64
2021/12/15 01:30:36;;;;;;;13.23;6.83;;;6.90;99.90;;;7.08;100.00;102116.91;5069125;28;21157;-64
2021/12/15 01:33:05;;;;;;;10.87;6.70;;;6.90;99.90;;;7.12;100.00;102121.09;5050864;28;20658;-64
2021/12/15 01:35:34;;;;;;;12.13;6.30;;;6.90;99.90;;;7.12;100.00;102121.09;5049717;28;20638;-64
2021/12/15 01:38:01;;;;;;;10.40;6.60;;;6.90;99.90;;;7.15;100.00;102120.13;5069733;28;21308;-64
2021/12/15 01:40:38;;;;;;;17.17;7.20;;;7.00;99.90;;;7.15;100.00;102120.13;5068151;28;20652;-65
2021/12/15 01:43:23;;;;;;;14.10;6.50;;;6.90;99.90;;;7.18;100.00;102123.47;5066939;28;20804;-64
2021/12/15 01:48:58;;;;;;;10.00;5.73;;;7.00;99.90;;;7.22;100.00;102132.03;5047893;28;20690;-62
2021/12/15 01:51:26;;;;;;;14.50;6.30;;;7.10;99.90;;;7.22;100.00;102130.25;5063954;28;20603;-65
2021/12/15 01:53:54;;;;;;;12.27;7.13;;;7.00;99.90;;;7.21;100.00;102127.72;5049696;28;20647;-64
2021/12/15 01:56:22;;;;;;;14.83;6.10;;;7.00;99.90;;;7.19;100.00;102132.09;5068986;28;20607;-64
2021/12/15 01:58:50;;;;;;;14.10;6.43;;;7.00;99.90;;;7.20;100.00;102136.41;5068577;28;21205;-64
2021/12/15 02:01:18;;;;;;;12.37;6.43;;;7.10;99.90;;;7.20;100.00;102132.06;5049814;28;20618;-64
2021/12/15 02:03:46;;;;;;;13.20;7.17;;;7.10;99.90;;;7.20;100.00;102134.66;5065198;28;21061;-64
2021/12/15 02:06:34;;;;;;;12.97;6.60;;;7.00;99.90;;;7.21;100.00;102131.16;5066701;28;20595;-64
2021/12/15 02:09:03;;;;;;;13.37;6.70;;;7.00;99.90;;;7.22;100.00;102132.03;5068803;28;20622;-64
2021/12/15 02:11:30;;;;;;;12.20;7.13;;;7.00;99.90;;;7.22;100.00;102130.25;5089141;28;21169;-64
2021/12/15 02:13:57;;;;;;;13.43;6.57;;;7.00;99.90;;;7.21;100.00;102133.75;5055430;28;20637;-64
2021/12/15 02:16:24;;;;;;;13.80;6.97;;;7.00;99.90;;;7.23;100.00;102138.88;5066562;28;21202;-65
2021/12/15 02:18:51;;;;;;;12.00;6.30;;;7.10;99.90;;;7.22;100.00;102140.63;5046693;28;20616;-64
2021/12/15 02:21:23;;;;;;;9.73;6.43;;;7.00;99.90;;;7.18;100.00;102141.63;5066086;28;20753;-64
2021/12/15 02:23:55;;;;;;;11.97;6.97;;;7.00;99.90;;;7.19;100.00;102145.94;5054423;28;20643;-64
2021/12/15 02:26:37;;;;;;;12.90;7.13;;;7.00;99.90;;;7.17;100.00;102134.78;5072143;28;20964;-64
2021/12/15 02:29:13;;;;;;;14.13;8.20;;;7.00;99.90;;;7.18;100.00;102144.25;5071975;28;20634;-64
2021/12/15 02:31:55;;;;;;;15.83;7.40;;;7.00;99.90;;;7.23;100.00;102144.94;5054017;28;20626;-65
2021/12/15 02:39:49;;;;;;;11.67;6.50;;;7.10;99.90;;;7.25;100.00;102145.72;5067231;28;20618;-64
2021/12/15 02:42:18;;;;;;;14.17;6.47;;;7.10;99.90;;;7.23;100.00;102142.34;5073076;28;20653;-64
2021/12/15 02:44:46;;;;;;;10.67;6.13;;;7.00;99.90;;;7.20;100.00;102141.63;5069555;28;20646;-64
2021/12/15 02:47:17;;;;;;;12.30;6.50;;;7.00;99.90;;;7.16;100.00;102138.25;5071113;28;20633;-64
2021/12/15 02:49:46;;;;;;;12.20;7.00;;;7.00;99.90;;;7.12;100.00;102141.84;5066138;28;20637;-64
2021/12/15 02:52:13;;;;;;;13.47;7.40;;;6.90;99.90;;;7.13;100.00;102143.56;5048581;28;20651;-63
2021/12/15 02:54:40;;;;;;;17.00;9.10;;;6.90;99.90;;;7.13;100.00;102142.72;5072148;28;20590;-64
2021/12/15 02:57:11;;;;;;;15.67;8.60;;;7.00;99.90;;;7.12;100.00;102144.44;5081209;28;20634;-64
2021/12/15 02:59:53;;;;;;;15.17;8.60;;;6.90;99.90;;;7.12;100.00;102136.66;5093334;28;20582;-64
2021/12/15 03:03:00;;;;;;;15.07;8.90;;;7.00;99.90;;;7.14;100.00;102144.38;5064494;28;20658;-64
2021/12/15 03:08:10;;;;;;;16.07;8.87;;;6.90;99.90;;;7.11;100.00;102145.38;5055204;28;20706;-64
2021/12/15 03:16:14;;;;;;;15.37;8.50;;;6.90;99.90;;;7.10;100.00;102146.25;5068552;28;20614;-64
2021/12/15 03:18:41;;;;;;;17.30;8.83;;;6.90;99.90;;;7.11;100.00;102140.19;5073080;28;20618;-65
2021/12/15 03:21:17;;;;;;;16.57;8.87;;;6.90;99.90;;;7.11;100.00;102145.38;5066191;28;20642;-65
2021/12/15 03:23:56;;;;;;;17.80;8.87;;;6.90;99.90;;;7.11;100.00;102145.38;5055052;28;20648;-64
2021/12/15 03:26:44;;;;;;;15.17;8.30;;;6.90;99.90;;;7.12;100.00;102144.44;5049375;28;20778;-64
2021/12/15 03:37:52;;;;;;;14.43;8.43;;;6.90;99.90;;;7.02;100.00;102148.25;5071049;28;20721;-64
2021/12/15 03:40:37;;;;;;;22.93;9.27;;;6.80;99.90;;;6.96;100.00;102151.06;5054481;28;20617;-64
2021/12/15 03:43:14;;;;;;;14.13;8.03;;;6.80;99.90;;;6.91;100.00;102150.34;5068791;28;20656;-64
2021/12/15 03:45:53;;;;;;;14.13;7.07;;;6.70;99.90;;;6.89;99.55;102149.56;5070640;28;20661;-64
2021/12/15 03:48:26;;;;;;;18.50;9.70;;;6.80;99.90;;;6.86;97.95;102150.50;5070994;28;20621;-65
2021/12/15 03:50:56;;;;;;;17.23;9.90;;;6.70;99.90;;;6.72;97.95;102147.50;5073615;28;20606;-64
2021/12/15 03:53:24;;;;;;;17.90;9.17;;;6.60;99.90;;;6.67;98.17;102156.31;5070637;28;20638;-63
2021/12/15 03:55:52;;;;;;;19.50;9.20;;;6.50;99.90;;;6.61;97.74;102149.59;5068952;28;20628;-64
2021/12/15 03:58:24;;;;;;;17.53;8.90;;;6.50;99.90;;;6.56;98.15;102150.66;5069845;28;21065;-65
2021/12/15 04:01:11;;;;;;;15.17;7.93;;;6.40;99.90;;;6.59;98.94;102160.91;5071870;28;20697;-64
2021/12/15 04:03:44;;;;;;;20.43;10.43;;;6.40;99.90;;;6.56;97.90;102155.84;5068176;28;20654;-64
2021/12/15 04:06:21;;;;;;;17.40;8.63;;;6.50;99.90;;;6.52;98.18;102156.81;5069355;28;20671;-65
2021/12/15 04:08:48;;;;;;;15.70;8.60;;;6.40;99.90;;;6.52;98.56;102154.22;5046196;28;20638;-65
2021/12/15 04:11:20;;;;;;;17.23;8.70;;;6.40;99.90;;;6.51;98.80;102157.72;5047602;28;20644;-63
2021/12/15 04:13:48;;;;;;;11.73;7.43;;;6.30;99.90;;;6.51;98.90;102153.38;5051971;28;20670;-64
2021/12/15 04:19:07;;;;;;;18.17;8.57;;;6.40;99.90;;;6.57;98.80;102160.09;5072156;28;20621;-65
2021/12/15 04:21:35;;;;;;;16.93;8.73;;;6.40;99.90;;;6.57;98.72;102163.56;5072340;28;20603;-64
2021/12/15 04:24:03;;;;;;;16.23;7.63;;;6.40;99.90;;;6.55;98.38;102157.56;5070457;28;20654;-64
2021/12/15 04:26:30;;;;;;;16.90;8.97;;;6.40;99.90;;;6.56;99.17;102153.25;5071241;28;20693;-65
2021/12/15 04:28:58;;;;;;;16.73;7.87;;;6.40;99.90;;;6.55;98.91;102159.31;5054557;28;20617;-65
2021/12/15 04:31:29;;;;;;;17.13;8.40;;;6.40;99.90;;;6.58;98.88;102154.88;5049269;28;20631;-65
2021/12/15 04:34:05;;;;;;;12.00;7.30;;;6.40;99.90;;;6.62;99.65;102155.63;5055693;28;20654;-65
2021/12/15 04:36:40;;;;;;;13.97;7.80;;;6.50;99.90;;;6.61;99.21;102153.94;5068496;28;20650;-65
2021/12/15 04:39:12;;;;;;;15.80;8.33;;;6.50;99.90;;;6.65;99.62;102160.72;5070177;28;20597;-65
2021/12/15 04:41:44;;;;;;;12.33;7.60;;;6.50;99.90;;;6.67;99.29;102161.50;5069936;28;21172;-64
2021/12/15 04:44:12;;;;;;;10.37;6.10;;;6.50;99.90;;;6.72;99.99;102170.00;5053538;28;20651;-65
2021/12/15 04:46:47;;;;;;;12.60;6.53;;;6.60;99.90;;;6.71;98.23;102170.88;5050814;28;20697;-65
2021/12/15 04:49:18;;;;;;;12.33;6.70;;;6.60;99.90;;;6.66;97.76;102165.88;5054497;28;20598;-66
2021/12/15 04:51:47;;;;;;;14.57;6.90;;;6.50;99.90;;;6.61;98.76;102164.31;5069624;28;20639;-66
2021/12/15 04:54:17;;;;;;;12.13;7.40;;;6.40;99.90;;;6.59;98.74;102166.09;5070152;28;20621;-64
2021/12/15 04:56:45;;;;;;;18.17;8.00;;;6.40;99.90;;;6.61;99.84;102167.75;5070289;28;20628;-65
2021/12/15 04:59:13;;;;;;;16.40;8.00;;;6.40;99.90;;;6.65;99.60;102171.09;5069339;28;20635;-66
2021/12/15 05:01:41;;;;;;;11.17;7.40;;;6.50;99.90;;;6.70;99.93;102171.81;5047843;28;21179;-67
2021/12/15 05:04:09;;;;;;;11.47;6.30;;;6.60;99.90;;;6.73;99.67;102172.53;5063319;28;20754;-65
2021/12/15 05:06:36;;;;;;;14.67;7.73;;;6.60;99.90;;;6.76;99.72;102169.88;5031479;28;21241;-66
2021/12/15 05:09:05;;;;;;;13.80;7.10;;;6.60;99.90;;;6.79;100.00;102174.13;5049938;28;20618;-65
2021/12/15 05:11:33;;;;;;;10.10;5.67;;;6.60;99.90;;;6.78;100.00;102178.44;5069360;28;20655;-64
2021/12/15 05:14:00;;;;;;;10.53;6.37;;;6.60;99.90;;;6.79;99.86;102181.91;5069088;28;21420;-66
2021/12/15 05:16:28;;;;;;;12.47;7.23;;;6.60;99.90;;;6.78;99.48;102178.44;5047353;28;20628;-66
2021/12/15 05:18:55;;;;;;;12.30;6.77;;;6.60;99.90;;;6.79;100.00;102187.09;5036156;28;21037;-65
2021/12/15 05:21:23;;;;;;;15.97;8.23;;;6.70;99.90;;;6.80;99.79;102183.56;5029664;28;20610;-65
2021/12/15 05:23:56;;;;;;;13.23;7.47;;;6.70;99.90;;;6.84;100.00;102182.56;5051272;28;20653;-64
2021/12/15 05:26:23;;;;;;;15.67;8.17;;;6.70;99.90;;;6.87;99.38;102192.88;5051371;28;20650;-66
2021/12/15 05:28:51;;;;;;;16.47;7.73;;;6.70;99.90;;;6.82;100.00;102185.22;5049415;28;20633;-64
2021/12/15 05:31:19;;;;;;;13.77;7.50;;;6.70;99.90;;;6.85;99.48;102187.75;5051293;28;20610;-66
2021/12/15 05:33:46;;;;;;;19.90;9.60;;;6.70;99.90;;;6.86;99.63;102196.34;5071740;28;21241;-65
2021/12/15 05:36:13;;;;;;;20.30;9.47;;;6.80;99.90;;;6.86;99.71;102197.22;5062739;28;20627;-65
2021/12/15 05:38:41;;;;;;;13.80;7.60;;;6.70;99.90;;;6.85;99.44;102200.72;5049117;28;20620;-66
2021/12/15 05:41:08;;;;;;;19.00;8.40;;;6.70;99.90;;;6.86;100.00;102194.59;5055987;28;20662;-65
2021/12/15 05:43:37;;;;;;;11.47;6.13;;;6.70;99.90;;;6.89;99.69;102196.25;5069582;28;20647;-65
2021/12/15 05:46:04;;;;;;;13.33;6.80;;;6.70;99.90;;;6.86;99.81;102194.59;5048681;28;20689;-67
2021/12/15 05:48:31;;;;;;;17.37;7.83;;;6.80;99.90;;;6.88;99.49;102190.22;5070052;28;20618;-66
2021/12/15 05:50:58;;;;;;;15.50;7.50;;;6.70;99.90;;;6.89;100.00;102188.47;5064117;28;20714;-66
2021/12/15 05:53:25;;;;;;;12.20;7.00;;;6.80;99.90;;;6.89;99.49;102193.66;5062545;28;20647;-66
2021/12/15 05:55:53;;;;;;;13.57;7.40;;;6.80;99.90;;;6.90;99.23;102198.81;5051123;28;21290;-66
2021/12/15 05:58:20;;;;;;;12.17;7.03;;;6.80;99.90;;;6.90;100.00;102200.53;5062980;28;20693;-65
2021/12/15 06:00:49;;;;;;;15.07;7.03;;;6.80;99.90;;;6.92;99.22;102198.78;5036272;28;20607;-65
2021/12/15 06:03:17;;;;;;;17.20;6.73;;;6.80;99.90;;;6.90;100.00;102197.94;5044764;28;20651;-63
2021/12/15 06:05:44;;;;;;;12.97;6.77;;;6.80;99.90;;;6.84;99.38;102203.34;5068353;28;20643;-66
2021/12/15 06:08:12;;;;;;;10.30;6.30;;;6.70;99.90;;;6.81;100.00;102201.72;5047617;28;20671;-64
2021/12/15 06:10:40;;;;;;;8.97;5.17;;;6.60;99.90;;;6.77;100.00;102207.88;5069350;28;20607;-64
2021/12/15 06:13:10;;;;;;;12.13;6.00;;;6.60;99.90;;;6.73;99.96;102206.28;5050513;28;20650;-65
2021/12/15 06:15:41;;;;;;;9.80;6.30;;;6.50;99.90;;;6.69;100.00;102199.47;5069995;28;20595;-64
2021/12/15 06:18:13;;;;;;;7.60;5.03;;;6.50;99.90;;;6.65;100.00;102203.06;5068364;28;20650;-64
2021/12/15 06:20:42;;;;;;;20.73;6.60;;;6.50;99.90;;;6.63;100.00;102204.00;5070327;28;20623;-65
2021/12/15 06:23:17;;;;;;;15.53;8.00;;;6.40;99.90;;;6.62;100.00;102208.34;5068147;28;20722;-65
2021/12/15 06:25:51;;;;;;;20.73;8.30;;;6.50;99.90;;;6.63;100.00;102210.06;5037567;28;20654;-64
2021/12/15 06:28:18;;;;;;;12.30;7.50;;;6.50;99.90;;;6.67;100.00;102216.84;5069897;28;20726;-68
2021/12/15 06:30:45;;;;;;;12.63;7.30;;;6.50;99.90;;;6.68;100.00;102221.16;5064335;28;20638;-66
2021/12/15 06:33:14;;;;;;;11.23;5.40;;;6.50;99.90;;;6.74;100.00;102222.69;5068985;28;20686;-65
2021/12/15 06:35:52;;;;;;;9.57;5.30;;;6.60;99.90;;;6.74;100.00;102218.34;5050267;28;20995;-66
2021/12/15 06:38:30;;;;;;;8.37;5.37;;;6.60;99.90;;;6.72;100.00;102224.47;5068605;28;20680;-64
2021/12/15 06:40:58;;;;;;;11.17;6.17;;;6.60;99.90;;;6.71;100.00;102223.63;5068381;28;20696;-65
2021/12/15 06:43:25;;;;;;;18.07;7.50;;;6.50;99.90;;;6.69;100.00;102235.78;5069313;28;20657;-64
2021/12/15 06:59:26;;;;;;;8.30;4.40;;;6.50;99.90;;;6.74;100.00;102248.63;5091229;28;20597;-63
2021/12/15 07:01:53;;;;;;;11.30;6.63;;;6.60;99.90;;;6.75;100.00;102260.72;5079039;28;20991;-65
2021/12/15 07:04:23;;;;;;;7.97;5.00;;;6.60;99.90;;;6.77;100.00;102261.53;5068755;28;20638;-66
2021/12/15 07:06:54;;;;;;;7.60;5.00;;;6.60;99.90;;;6.77;100.00;102264.13;5069842;28;20721;-65
2021/12/15 07:09:23;;;;;;;14.47;7.60;;;6.60;99.90;;;6.79;100.00;102264.91;5069104;28;21163;-65
2021/12/15 07:11:52;;;;;;;19.50;7.40;;;6.60;99.90;;;6.76;100.00;102273.63;5054496;28;21310;-65
2021/12/15 07:14:20;;;;;;;11.47;6.97;;;6.60;99.90;;;6.80;100.00;102270.03;5071475;28;20614;-65
2021/12/15 07:16:51;;;;;;;16.20;9.40;;;6.60;99.90;;;6.80;100.00;102272.66;5070358;28;21018;-65
2021/12/15 07:19:30;;;;;;;14.17;7.27;;;6.70;99.90;;;6.77;100.00;102285.69;5071037;28;20669;-65
2021/12/15 07:22:15;;;;;;;13.10;7.47;;;6.60;99.90;;;6.72;100.00;102287.59;5063932;28;20635;-65
2021/12/15 07:24:42;;;;;;;11.37;6.90;;;6.60;99.90;;;6.70;99.46;102296.31;5072254;28;20610;-65
2021/12/15 07:27:09;;;;;;;12.63;6.90;;;6.60;99.90;;;6.65;99.91;102295.59;5052495;28;20693;-64
2021/12/15 07:29:36;;;;;;;12.43;8.30;;;6.50;99.90;;;6.67;98.88;102301.59;5073991;28;20606;-63
2021/12/15 07:32:05;;;;;;;14.83;8.20;;;6.50;99.90;;;6.61;99.36;102304.34;5070765;28;20718;-64
2021/12/15 07:34:32;;;;;;;12.77;7.20;;;6.50;99.90;;;6.55;99.27;102307.13;5052350;28;20626;-64
2021/12/15 07:36:59;;;;;;;12.97;7.33;;;6.40;99.90;;;6.54;98.40;102310.63;5073795;28;20603;-64
2021/12/15 07:39:26;;;;;;;12.13;7.10;;;6.30;99.90;;;6.53;98.26;102307.19;5071268;28;21023;-65
2021/12/15 07:42:03;;;;;;;10.50;7.03;;;6.40;99.90;;;6.47;99.10;102309.09;5068583;28;20637;-65
2021/12/15 07:44:31;;;;;;;11.00;7.30;;;6.30;99.90;;;6.49;98.29;102315.09;5072084;28;20737;-65
2021/12/15 07:46:58;;;;;;;10.60;6.40;;;6.30;99.90;;;6.49;97.72;102315.94;5070541;28;21081;-66
2021/12/15 07:49:27;;;;;;;11.37;6.40;;;6.40;99.90;;;6.52;97.67;102315.00;5071412;28;20621;-65
2021/12/15 07:52:00;;;;;;;11.70;6.87;;;6.50;99.90;;;6.55;98.25;102318.38;5072978;28;20598;-64
2021/12/15 07:54:32;;;;;;;9.97;6.70;;;6.50;99.90;;;6.55;97.93;102327.88;5049635;28;20630;-65
2021/12/15 07:57:07;;;;;;;9.30;6.10;;;6.40;99.90;;;6.55;97.69;102328.75;5036590;28;20618;-67
2021/12/15 07:59:35;;;;;;;7.70;4.47;;;6.40;99.90;;;6.59;98.10;102329.50;5049347;28;20667;-66
2021/12/15 08:02:03;;;;;;;9.33;4.80;;;6.50;99.90;;;6.65;97.48;102335.34;5052409;28;20619;-64
2021/12/15 08:04:31;;;;;;;5.60;4.40;;;6.50;99.90;;;6.71;97.37;102337.75;5070043;28;20637;-64
2021/12/15 08:06:57;;;;;;;9.43;6.27;;;6.60;99.90;;;6.78;97.36;102333.25;5092263;28;20658;-65
2021/12/15 08:09:25;;;;;;;10.20;6.23;;;6.70;99.90;;;6.80;97.09;102331.47;5083151;28;20619;-65
2021/12/15 08:11:52;;;;;;;13.97;7.00;;;6.70;99.90;;;6.84;96.41;102339.13;5049951;28;20607;-65
2021/12/15 08:14:19;;;;;;;13.73;7.10;;;6.70;99.90;;;6.89;95.87;102338.97;5061566;28;20707;-64
2021/12/15 08:16:46;;;;;;;8.40;6.23;;;6.70;99.90;;;6.90;96.59;102338.94;5058048;28;20719;-66
2021/12/15 08:19:18;;;;;;;11.53;6.90;;;6.80;99.90;;;6.93;95.50;102335.41;5054768;28;21005;-66
2021/12/15 08:21:46;;;;;;;9.27;5.80;;;6.80;99.90;;;6.96;95.56;102338.75;5065725;28;20625;-65
2021/12/15 08:24:14;;;;;;;9.90;6.93;;;6.80;99.90;;;7.01;94.66;102336.88;5048823;28;20659;-65
2021/12/15 08:26:41;;;;;;;9.00;5.77;;;6.90;99.90;;;7.09;94.42;102336.66;5067094;28;20741;-65
2021/12/15 08:29:08;;;;;;;6.47;5.10;;;7.00;99.90;;;7.14;94.11;102336.47;5071354;28;20643;-65
2021/12/15 08:31:35;;;;;;;7.67;5.27;;;7.00;99.90;;;7.19;94.15;102334.59;5065059;28;20668;-65
2021/12/15 08:34:03;;;;;;;9.63;5.70;;;7.10;99.90;;;7.23;93.02;102337.06;5070387;28;20723;-66
2021/12/15 08:36:31;;;;;;;5.73;5.10;;;7.10;99.90;;;7.32;93.63;102331.59;5062856;28;21278;-67
2021/12/15 08:38:58;;;;;;;6.70;5.17;;;7.20;99.90;;;7.39;92.70;102338.25;5036815;28;20615;-65
2021/12/15 08:41:29;;;;;;;9.60;5.67;;;7.30;99.90;;;7.42;91.93;102333.00;5068402;28;21217;-65
2021/12/15 08:43:57;;;;;;;9.00;6.07;;;7.30;99.90;;;7.48;92.54;102334.53;5069980;28;21259;-64
2021/12/15 08:46:30;;;;;;;10.77;6.40;;;7.40;99.90;;;7.55;92.10;102330.84;5067333;28;21029;-64
2021/12/15 08:49:00;;;;;;;8.87;5.90;;;7.50;99.90;;;7.63;91.57;102332.28;5056961;28;21185;-66
2021/12/15 08:51:29;;;;;;;9.20;5.30;;;7.60;99.90;;;7.71;91.93;102345.00;5069295;28;20622;-66
2021/12/15 08:54:01;;;;;;;11.73;5.50;;;7.60;99.90;;;7.74;91.47;102345.78;5053279;28;20718;-66
2021/12/15 08:56:29;;;;;;;8.20;5.13;;;7.70;99.90;;;7.70;90.22;102343.34;5061058;28;20647;-64
2021/12/15 08:58:57;;;;;;;9.30;4.90;;;7.70;99.90;;;7.64;91.23;102353.94;5052244;28;20624;-66
2021/12/15 09:01:25;;;;;;;10.00;5.63;;;7.50;99.90;;;7.62;91.48;102353.97;5053157;28;20638;-64
2021/12/15 09:03:52;;;;;;;6.97;4.60;;;7.50;99.90;;;7.61;92.04;102348.81;5069101;28;20649;-65
2021/12/15 09:06:21;;;;;;;8.10;4.53;;;7.50;99.90;;;7.63;92.23;102352.22;5057482;28;20687;-67
2021/12/15 09:08:48;;;;;;;7.90;5.07;;;7.50;99.90;;;7.66;92.39;102353.00;5049964;28;20682;-65
2021/12/15 09:11:20;;;;;;;7.40;5.53;;;7.60;99.90;;;7.70;92.23;102353.72;5067914;28;21121;-64
2021/12/15 09:13:51;;;;;;;13.17;5.87;;;7.70;99.90;;;7.78;91.60;102351.72;5067594;28;20643;-65
2021/12/15 09:16:22;;;;;;;10.20;5.87;;;7.80;99.90;;;7.88;90.91;102357.47;5058567;28;20622;-64
2021/12/15 09:18:51;;;;;;;12.23;6.37;;;7.90;99.90;;;7.94;91.15;102362.47;5067750;28;20626;-65
2021/12/15 09:21:22;;;;;;;8.20;5.73;;;7.90;99.90;;;8.02;91.18;102363.03;5065055;28;20626;-63
2021/12/15 09:23:50;;;;;;;10.00;6.50;;;8.00;99.90;;;8.13;91.31;102363.53;5068756;28;20724;-65
2021/12/15 09:26:20;;;;;;;8.30;5.13;;;8.10;99.90;;;8.22;90.73;102361.44;5066093;28;20677;-66
2021/12/15 09:28:49;;;;;;;12.93;5.97;;;8.10;99.90;;;8.25;89.80;102357.91;5050027;28;20634;-65
2021/12/15 09:31:16;;;;;;;11.53;5.47;;;8.20;99.90;;;8.28;89.81;102363.03;5053002;28;20617;-64
2021/12/15 09:33:52;;;;;;;7.07;5.10;;;8.20;99.90;;;8.27;89.33;102362.19;5069575;28;20654;-64
2021/12/15 09:36:23;;;;;;;10.40;5.63;;;8.20;99.90;;;8.31;89.13;102362.91;5050512;28;20680;-64
2021/12/15 09:39:06;;;;;;;7.80;4.77;;;8.20;99.90;;;8.28;88.67;102371.69;5070634;28;20626;-64
2021/12/15 09:41:34;;;;;;;11.50;4.87;;;8.20;99.90;;;8.29;88.89;102364.72;5047353;28;20623;-66
2021/12/15 09:44:08;;;;;;;9.87;6.30;;;8.20;99.90;;;8.32;89.13;102369.81;5046209;28;20782;-66
2021/12/15 10:06:03;;;;;;;9.63;5.83;;;8.60;99.90;;;8.72;89.23;102366.63;5064240;28;20625;-65
2021/12/15 10:11:42;;;;;;;7.37;5.17;;;8.70;99.90;;;8.89;89.33;102370.31;5056058;28;20590;-65
2021/12/15 10:17:28;;;;;;;12.80;7.17;;;9.00;99.90;;;9.13;88.62;102356.38;5008976;28;20653;-64
2021/12/15 10:20:01;;;;;;;11.70;6.87;;;9.10;99.90;;;9.30;87.70;102353.97;4992423;28;21035;-64
2021/12/15 10:22:38;;;;;;;10.17;5.63;;;9.40;99.90;;;9.48;87.18;102346.28;5015897;28;22995;-65
2021/12/15 10:25:24;;;;;;;9.40;5.20;;;9.50;99.90;;;9.59;85.65;102351.91;5067698;28;20623;-65
2021/12/15 10:28:08;;;;;;;11.50;6.07;;;9.60;99.90;;;9.63;85.92;102348.28;5051966;28;20642;-65
2021/12/15 10:30:41;;;;;;;8.90;6.07;;;9.60;99.90;;;9.64;84.78;102348.25;5075179;28;20663;-65
2021/12/15 10:33:16;;;;;;;14.87;6.53;;;9.60;99.90;;;9.61;85.11;102344.88;5091373;28;20722;-66
2021/12/15 10:36:07;;;;;;;8.80;5.57;;;9.60;99.90;;;9.51;85.10;102346.19;5075264;28;20745;-65
2021/12/15 10:38:51;;;;;;;10.80;5.70;;;9.40;99.90;;;9.40;85.24;102338.78;5053213;28;21261;-65
2021/12/15 10:41:27;;;;;;;10.30;6.30;;;9.30;99.90;;;9.31;85.98;102334.78;5058663;28;20638;-65
2021/12/15 10:44:16;;;;;;;8.47;6.07;;;9.20;99.90;;;9.27;86.00;102337.59;5059783;28;20665;-65
2021/12/15 10:46:55;;;;;;;11.80;6.70;;;9.10;99.90;;;9.25;86.54;102335.03;5033412;28;20665;-67
2021/12/15 10:49:29;;;;;;;8.10;5.80;;;9.10;99.90;;;9.28;86.76;102334.91;5073410;28;20618;-65
2021/12/15 10:51:57;;;;;;;11.63;6.43;;;9.10;99.90;;;9.29;86.67;102328.81;5070431;28;20644;-65
2021/12/15 10:54:34;;;;;;;11.20;6.40;;;9.20;99.90;;;9.28;86.54;102326.28;5071903;28;20644;-66
2021/12/15 10:57:11;;;;;;;13.40;7.50;;;9.20;99.90;;;9.29;87.27;102327.94;5071483;28;20618;-65
2021/12/15 10:59:49;;;;;;;7.63;5.20;;;9.20;99.90;;;9.31;87.45;102332.19;5069976;28;20714;-66
2021/12/15 11:02:37;;;;;;;7.57;5.20;;;9.20;99.90;;;9.30;86.69;102327.91;5056320;28;21070;-64
2021/12/15 11:05:15;;;;;;;10.57;6.20;;;9.20;99.90;;;9.35;86.64;102320.75;5051688;28;20641;-64
2021/12/15 11:07:47;;;;;;;9.57;5.70;;;9.20;99.90;;;9.42;86.78;102320.47;5067731;28;20719;-65
2021/12/15 11:10:17;;;;;;;10.90;5.63;;;9.30;99.90;;;9.50;85.97;102326.25;5052585;28;20639;-65
2021/12/15 11:12:57;;;;;;;11.83;6.63;;;9.40;99.90;;;9.49;85.80;102322.81;5072695;28;20656;-64
2021/12/15 11:15:40;;;;;;;12.53;6.43;;;9.40;99.90;;;9.50;86.10;102318.44;5049562;28;21291;-65
2021/12/15 11:18:22;;;;;;;7.33;5.53;;;9.30;99.90;;;9.45;86.25;102315.16;5040439;28;20603;-66
2021/12/15 11:21:08;;;;;;;10.60;6.20;;;9.30;99.90;;;9.44;85.33;102311.69;5057526;28;20622;-65
2021/12/15 11:23:38;;;;;;;6.70;5.30;;;9.20;99.90;;;9.44;85.86;102313.44;5037361;28;20722;-65
2021/12/15 11:26:11;;;;;;;8.07;5.50;;;9.30;99.90;;;9.43;85.27;102317.84;5071839;28;20642;-66
2021/12/15 11:28:43;;;;;;;10.67;5.57;;;9.20;99.90;;;9.42;85.42;102308.31;5072133;28;20662;-66
2021/12/15 11:31:23;;;;;;;11.13;5.90;;;9.30;99.90;;;9.45;85.21;102309.94;5073509;28;20621;-64
2021/12/15 11:34:10;;;;;;;7.20;5.50;;;9.30;99.90;;;9.46;84.57;102311.63;5072610;28;20737;-66
2021/12/15 11:36:44;;;;;;;7.70;5.63;;;9.30;99.90;;;9.38;84.63;102305.00;5054591;28;20624;-65
2021/12/15 11:39:21;;;;;;;12.80;6.07;;;9.30;99.90;;;9.35;84.90;102299.03;5055056;28;20697;-66
2021/12/15 11:41:52;;;;;;;9.43;5.40;;;9.20;99.90;;;9.36;85.17;102293.78;5072468;28;20975;-68
2021/12/15 11:44:23;;;;;;;13.63;6.80;;;9.20;99.90;;;9.34;86.04;102285.19;5071882;28;20606;-65
2021/12/15 11:46:55;;;;;;;30.43;15.33;;;9.20;99.90;;;9.35;86.92;102291.22;5071512;28;20658;-67
2021/12/15 11:49:36;;;;;;;26.50;14.50;;;9.20;99.90;;;9.42;86.65;102289.22;5054410;28;20970;-67